Time;durP1;ratioP1;P1;durP2;ratioP2;P2;SDS_P1;SDS_P2;PMS_P1;PMS_P2;Temp;Humidity;BMP_temperature;BMP_pressure;BME280_temperature;BME280_humidity;BME280_pressure;Samples;Min_cycle;Max_cycle;Signal;HPM_P1;HPM_P2
2022/12/26 13:51:53;;;;;;;2.78;1.10;;;;;;;10.95;82.85;100022.19;1078806;54;20041;-78
2022/12/26 13:52:55;;;;;;;5.63;1.55;;;;;;;10.98;82.61;100013.84;1085081;54;20057;-79
2022/12/26 13:54:04;;;;;;;3.60;1.48;;;;;;;11.05;82.70;100022.13;1087037;54;20034;-79
2022/12/26 13:57:10;;;;;;;3.70;1.50;;;;;;;10.98;82.57;100015.72;1085702;54;20069;-78
2022/12/26 13:58:36;;;;;;;3.50;1.40;;;;;;;11.15;82.04;100016.72;1087795;46;20082;-78
2022/12/26 13:59:44;;;;;;;3.33;1.23;;;;;;;11.15;82.30;100019.41;1087610;54;20058;-82
2022/12/26 14:00:49;;;;;;;3.38;1.42;;;;;;;11.15;82.47;100022.06;1086674;54;20026;-79
2022/12/26 14:01:57;;;;;;;3.70;1.50;;;;;;;11.19;81.96;100028.81;1086002;54;20058;-78
2022/12/26 14:03:45;;;;;;;3.17;1.35;;;;;;;11.14;81.79;100028.44;1086078;54;20038;-79
2022/12/26 14:04:58;;;;;;;3.70;1.40;;;;;;;11.13;81.55;100027.59;1084974;54;20050;-78
2022/12/26 14:06:41;;;;;;;2.70;1.08;;;;;;;11.27;81.36;100022.75;1084454;54;20624;-78
2022/12/26 14:07:54;;;;;;;3.97;1.55;;;;;;;11.24;81.22;100015.84;1086623;39;20426;-80
2022/12/26 14:09:15;;;;;;;3.67;1.42;;;;;;;11.29;80.85;100015.41;1085289;54;20081;-79
2022/12/26 14:10:26;;;;;;;3.50;1.40;;;;;;;11.37;81.22;100008.28;1085028;54;20038;-78
2022/12/26 14:11:48;;;;;;;3.65;1.63;;;;;;;11.31;80.75;100008.91;1085116;54;20054;-79
2022/12/26 14:13:07;;;;;;;5.60;1.60;;;;;;;11.44;80.34;99989.81;1085723;54;20039;-79
2022/12/26 14:14:23;;;;;;;3.70;1.48;;;;;;;11.46;79.83;99992.31;1087508;46;20073;-76
2022/12/26 14:15:37;;;;;;;3.45;1.23;;;;;;;11.49;79.84;99992.03;1086105;54;20049;-77
2022/12/26 14:16:46;;;;;;;3.55;1.65;;;;;;;11.56;79.59;99987.72;1084762;54;20043;-78
2022/12/26 14:18:00;;;;;;;3.58;1.58;;;;;;;11.60;79.79;99993.63;1084493;54;20043;-77
2022/12/26 14:19:16;;;;;;;3.53;1.40;;;;;;;11.67;79.20;99990.19;1084486;54;20064;-76
2022/12/26 14:20:40;;;;;;;2.90;1.27;;;;;;;11.74;79.28;99998.47;1084268;54;20069;-76
2022/12/26 14:21:51;;;;;;;4.43;1.65;;;;;;;11.76;79.34;99999.13;1087267;54;20050;-80
2022/12/26 14:23:14;;;;;;;3.10;1.33;;;;;;;11.84;78.89;99999.22;1087326;54;20058;-76
2022/12/26 14:24:30;;;;;;;3.38;1.52;;;;;;;11.82;78.09;99997.66;1089607;39;20706;-76
2022/12/26 14:25:45;;;;;;;2.92;1.27;;;;;;;11.78;78.61;99996.31;1087332;54;20777;-76
2022/12/26 14:26:59;;;;;;;2.90;1.23;;;;;;;11.81;78.37;99995.97;1087167;54;20030;-77
2022/12/26 14:28:10;;;;;;;3.15;1.52;;;;;;;11.80;78.01;99999.69;1086608;39;20478;-77
2022/12/26 14:29:24;;;;;;;2.97;1.27;;;;;;;11.74;77.95;99998.47;1085847;39;20131;-77
2022/12/26 14:30:33;;;;;;;3.03;1.35;;;;;;;11.67;78.42;99997.34;1085124;54;20078;-76
2022/12/26 14:31:45;;;;;;;2.83;1.20;;;;;;;11.74;78.21;100000.28;1085942;39;20502;-77
2022/12/26 14:33:00;;;;;;;4.18;1.60;;;;;;;11.55;77.79;100002.09;1086437;54;20046;-77
2022/12/26 14:34:16;;;;;;;4.32;1.60;;;;;;;11.45;77.84;99995.97;1090240;39;20755;-78
2022/12/26 14:35:29;;;;;;;3.65;1.67;;;;;;;11.57;77.85;99992.09;1086212;54;20069;-78
2022/12/26 14:36:47;;;;;;;3.53;1.27;;;;;;;11.44;77.52;99991.63;1088407;31;20597;-79
2022/12/26 14:38:04;;;;;;;2.80;1.23;;;;;;;11.48;77.09;100001.03;1088799;39;20694;-78
2022/12/26 14:39:21;;;;;;;4.97;1.60;;;;;;;11.46;77.28;99997.66;1086542;54;20402;-78
2022/12/26 14:40:33;;;;;;;2.95;1.20;;;;;;;11.45;77.34;99995.97;1085950;54;20069;-78
2022/12/26 14:43:38;;;;;;;3.10;1.50;;;;;;;11.59;77.06;99989.25;1086824;54;20050;-76
2022/12/26 14:44:43;;;;;;;3.00;1.20;;;;;;;11.71;76.78;99986.19;1087389;54;20063;-77
2022/12/26 14:45:50;;;;;;;3.10;1.20;;;;;;;11.80;76.34;99989.78;1087358;54;20042;-79
2022/12/26 14:46:59;;;;;;;4.85;1.50;;;;;;;11.84;76.36;99987.66;1088086;39;20988;-78
2022/12/26 14:48:03;;;;;;;3.20;1.40;;;;;;;11.92;76.35;99981.53;1087408;39;20493;-77
2022/12/26 14:49:23;;;;;;;4.35;1.75;;;;;;;11.88;76.22;99978.31;1087493;54;20042;-77
2022/12/26 14:50:41;;;;;;;3.72;1.70;;;;;;;11.92;76.10;99978.84;1087089;54;20039;-78
2022/12/26 14:51:46;;;;;;;5.15;2.83;;;;;;;11.94;76.04;99975.00;1086264;54;20042;-77
2022/12/26 14:52:48;;;;;;;4.80;2.15;;;;;;;11.94;76.35;99975.00;1086829;54;20039;-80
2022/12/26 14:54:35;;;;;;;6.78;2.75;;;;;;;11.88;75.93;99986.34;1087129;54;20046;-77
2022/12/26 14:55:51;;;;;;;5.45;2.35;;;;;;;11.84;76.35;99987.66;1087446;54;20059;-77
2022/12/26 14:57:00;;;;;;;5.32;2.65;;;;;;;11.83;76.75;99988.63;1087515;54;20035;-79
2022/12/26 14:58:38;;;;;;;4.15;2.20;;;;;;;11.71;76.52;99991.53;1084754;54;20585;-78
2022/12/26 15:00:00;;;;;;;5.78;1.98;;;;;;;11.70;77.24;99995.25;1084936;54;20044;-77
2022/12/26 15:01:34;;;;;;;3.78;1.80;;;;;;;11.77;76.34;99989.25;1085030;54;20693;-78
2022/12/26 15:02:38;;;;;;;3.97;1.90;;;;;;;11.76;76.53;99991.09;1085308;54;20081;-80
2022/12/26 15:03:53;;;;;;;3.92;1.75;;;;;;;11.87;76.07;99973.94;1085685;54;20038;-78
2022/12/26 15:05:09;;;;;;;4.38;2.10;;;;;;;11.69;76.46;99988.19;1085658;54;20181;-79
2022/12/26 15:07:01;;;;;;;4.22;2.38;;;;;;;11.55;76.54;99970.84;1087161;39;20108;-80
2022/12/26 15:08:31;;;;;;;4.13;2.17;;;;;;;11.50;76.82;99972.28;1086948;54;20042;-80
2022/12/26 15:10:15;;;;;;;4.00;1.83;;;;;;;11.59;76.44;99986.56;1086970;54;20018;-81
2022/12/26 15:11:52;;;;;;;4.97;1.77;;;;;;;11.67;76.24;99982.16;1087179;54;20034;-81
2022/12/26 15:13:26;;;;;;;3.38;1.38;;;;;;;11.78;75.85;99980.25;1087269;54;20054;-79
2022/12/26 15:15:09;;;;;;;3.45;1.50;;;;;;;11.76;75.94;99984.91;1084777;54;20046;-78
2022/12/26 15:16:43;;;;;;;3.17;1.50;;;;;;;11.69;75.64;99977.50;1085746;54;20121;-76
2022/12/26 15:18:17;;;;;;;3.65;1.40;;;;;;;11.53;76.53;99985.34;1088049;39;20510;-78
2022/12/26 15:19:53;;;;;;;3.28;1.50;;;;;;;11.58;76.61;99980.41;1086665;54;20065;-81
2022/12/26 15:21:14;;;;;;;5.07;1.38;;;;;;;11.66;76.16;99988.50;1086517;54;20658;-80
2022/12/26 15:22:44;;;;;;;3.55;1.50;;;;;;;11.71;75.72;99991.53;1086518;39;20496;-79
2022/12/26 15:24:23;;;;;;;3.50;1.70;;;;;;;11.52;76.09;99997.09;1084259;54;20049;-76
2022/12/26 15:25:46;;;;;;;3.47;1.67;;;;;;;11.54;76.07;99997.75;1083313;47;20050;-77
2022/12/26 15:27:08;;;;;;;4.00;1.65;;;;;;;11.65;76.14;99996.69;1084244;54;20039;-75
2022/12/26 15:28:44;;;;;;;5.38;1.90;;;;;;;11.49;76.36;100003.56;1085447;54;20038;-75
2022/12/26 15:30:05;;;;;;;4.53;2.00;;;;;;;11.41;75.89;100006.16;1086721;54;20065;-78
2022/12/26 15:31:28;;;;;;;3.75;1.80;;;;;;;11.47;75.91;100002.03;1086064;54;20062;-77
2022/12/26 15:32:41;;;;;;;3.75;2.03;;;;;;;11.57;75.65;99999.28;1084763;54;20576;-76
2022/12/26 15:33:50;;;;;;;3.80;1.73;;;;;;;11.48;75.53;99996.50;1085370;54;20054;-76
2022/12/26 15:35:06;;;;;;;5.87;1.50;;;;;;;11.47;75.29;99985.97;1085164;54;20042;-76
2022/12/26 15:36:20;;;;;;;3.53;1.10;;;;;;;11.44;75.33;99992.47;1085083;54;20271;-75
2022/12/26 15:37:43;;;;;;;7.18;1.55;;;;;;;11.45;75.44;99987.94;1084444;54;20101;-77
2022/12/26 15:38:53;;;;;;;2.60;1.00;;;;;;;11.42;75.59;99990.94;1084607;54;20062;-79
2022/12/26 15:40:09;;;;;;;3.53;1.38;;;;;;;11.39;75.58;99989.38;1085279;54;20038;-80
2022/12/26 15:41:29;;;;;;;2.15;1.00;;;;;;;11.45;75.00;99991.47;1087235;46;20061;-78
2022/12/26 15:42:46;;;;;;;3.30;1.30;;;;;;;11.53;75.10;99996.06;1087193;54;20035;-77
2022/12/26 15:44:10;;;;;;;2.45;1.17;;;;;;;11.52;75.43;99989.06;1085232;54;20050;-77
2022/12/26 15:45:39;;;;;;;3.00;1.27;;;;;;;11.46;75.00;100003.03;1084880;54;20054;-78
2022/12/26 15:46:56;;;;;;;3.78;1.13;;;;;;;11.45;74.95;100012.03;1085487;46;20595;-77
2022/12/26 15:48:06;;;;;;;3.35;1.23;;;;;;;11.45;74.79;100012.91;1086130;54;20038;-76
2022/12/26 15:49:31;;;;;;;5.63;1.15;;;;;;;11.44;75.06;100010.34;1084761;54;20598;-77
2022/12/26 15:50:51;;;;;;;3.33;1.10;;;;;;;11.47;74.80;100018.94;1084747;54;20548;-75
2022/12/26 15:52:05;;;;;;;3.22;1.25;;;;;;;11.51;74.99;100009.59;1085218;54;20043;-76
2022/12/26 15:53:20;;;;;;;6.07;1.50;;;;;;;11.57;74.55;99997.44;1084802;54;20065;-76
2022/12/26 15:54:48;;;;;;;4.18;1.50;;;;;;;11.50;74.66;100001.75;1085114;54;20069;-77
2022/12/26 15:56:35;;;;;;;3.00;1.30;;;;;;;11.54;74.97;100000.41;1083956;54;20057;-77
2022/12/26 16:23:08;;;;;;;3.60;1.65;;;;;;;11.31;76.20;100011.59;1086578;54;20042;-78
2022/12/26 16:24:12;;;;;;;4.80;1.33;;;;;;;11.24;76.46;100016.69;1087090;54;20047;-80
2022/12/26 16:25:20;;;;;;;3.47;1.35;;;;;;;11.36;76.32;100011.13;1087461;54;20035;-81
2022/12/26 16:26:24;;;;;;;3.60;1.38;;;;;;;11.43;75.99;100022.09;1087577;54;20034;-81
2022/12/26 16:27:32;;;;;;;4.40;1.42;;;;;;;11.38;75.77;100022.53;1088536;46;20030;-77
2022/12/26 16:28:36;;;;;;;7.35;1.38;;;;;;;11.35;75.64;100020.16;1086999;54;20048;-79
2022/12/26 16:29:48;;;;;;;3.92;1.40;;;;;;;11.52;75.38;100023.84;1087119;54;20090;-78
2022/12/26 16:30:52;;;;;;;4.00;0.98;;;;;;;11.45;75.33;100034.31;1087035;54;20039;-79
2022/12/26 16:32:01;;;;;;;3.13;1.20;;;;;;;11.43;75.43;100032.78;1087361;54;20046;-80
2022/12/26 16:33:06;;;;;;;2.70;0.90;;;;;;;11.42;75.70;100031.09;1088253;46;20034;-78
2022/12/26 16:34:16;;;;;;;3.45;1.20;;;;;;;11.49;75.55;100030.31;1087240;54;20046;-77
2022/12/26 16:35:26;;;;;;;2.97;1.10;;;;;;;11.51;75.41;100022.16;1087367;54;20042;-78
2022/12/26 16:36:29;;;;;;;;;;;;;;;11.37;76.19;100036.91;1087414;54;20041;-78
2022/12/26 16:37:34;;;;;;;3.00;1.30;;;;;;;11.36;76.13;100030.69;1090567;46;19965;-80
2022/12/26 16:38:37;;;;;;;2.97;1.38;;;;;;;11.43;76.26;100027.44;1087362;54;20042;-82
2022/12/26 16:39:41;;;;;;;3.10;1.25;;;;;;;11.47;76.50;100016.28;1087381;54;20043;-84
2022/12/26 16:40:47;;;;;;;3.50;1.40;;;;;;;11.33;77.18;100012.28;1087134;54;20035;-82
2022/12/26 16:42:02;;;;;;;2.47;0.98;;;;;;;11.25;77.41;100012.16;1087206;54;20035;-81
2022/12/26 16:43:18;;;;;;;3.30;1.17;;;;;;;11.18;78.20;100019.09;1086635;54;20062;-79
2022/12/26 16:44:28;;;;;;;3.08;1.13;;;;;;;11.17;78.46;100017.44;1087694;47;20034;-80
2022/12/26 16:45:35;;;;;;;3.08;1.38;;;;;;;11.23;78.18;100006.16;1087059;54;20030;-78
2022/12/26 16:46:37;;;;;;;3.60;1.48;;;;;;;11.10;78.98;100008.31;1087979;47;20039;-77
2022/12/26 16:47:42;;;;;;;4.57;1.52;;;;;;;11.15;78.91;100006.03;1088921;31;20640;-77
2022/12/26 16:48:47;;;;;;;4.45;1.35;;;;;;;11.12;79.17;100009.03;1087457;54;20041;-78
2022/12/26 16:49:53;;;;;;;4.40;1.60;;;;;;;11.14;79.36;100020.41;1087428;54;20030;-78
2022/12/26 16:51:02;;;;;;;3.58;1.42;;;;;;;11.09;79.37;100018.19;1087300;54;20073;-78
2022/12/26 16:52:06;;;;;;;4.13;1.38;;;;;;;11.02;79.75;100012.59;1087380;54;20038;-77
2022/12/26 16:53:13;;;;;;;2.97;1.20;;;;;;;11.07;79.55;100010.28;1087465;54;20018;-81
2022/12/26 16:54:25;;;;;;;3.58;1.45;;;;;;;11.05;79.70;100014.94;1087351;54;20049;-78
2022/12/26 16:55:59;;;;;;;2.63;1.13;;;;;;;10.93;80.37;100016.16;1087644;54;20034;-81
2022/12/26 16:57:05;;;;;;;2.92;1.20;;;;;;;10.95;80.48;100016.00;1087488;54;20037;-79
2022/12/26 16:58:20;;;;;;;3.67;1.35;;;;;;;11.11;79.68;100020.72;1087583;39;20504;-80
2022/12/26 16:59:24;;;;;;;3.83;1.60;;;;;;;11.04;80.03;100025.81;1086857;54;20038;-81
2022/12/26 17:00:28;;;;;;;3.35;1.48;;;;;;;11.11;79.97;100032.22;1086902;54;20042;-83
2022/12/26 17:01:35;;;;;;;4.82;1.40;;;;;;;11.02;79.88;100030.44;1087131;54;20086;-79
2022/12/26 17:02:55;;;;;;;4.43;1.65;;;;;;;11.21;79.51;100033.03;1087703;54;20710;-78
2022/12/26 17:04:05;;;;;;;4.75;1.80;;;;;;;11.13;79.40;100030.25;1087700;54;20101;-81
2022/12/26 17:05:21;;;;;;;3.15;1.48;;;;;;;11.18;79.67;100021.78;1086131;54;20042;-81
2022/12/26 17:07:07;;;;;;;4.78;1.88;;;;;;;10.95;80.06;100029.38;1085661;54;20038;-82
2022/12/26 17:10:29;;;;;;;3.30;1.60;;;;;;;10.87;81.19;100033.63;1087354;54;20095;-80
2022/12/26 17:11:56;;;;;;;4.57;1.77;;;;;;;10.87;81.10;100038.97;1087211;54;20097;-83
2022/12/26 17:13:00;;;;;;;4.03;1.30;;;;;;;10.85;81.15;100032.09;1087791;54;20045;-78
2022/12/26 17:14:07;;;;;;;3.17;1.45;;;;;;;10.89;80.97;100036.13;1087812;54;20111;-82
2022/12/26 17:15:19;;;;;;;4.03;1.67;;;;;;;11.00;80.98;100035.13;1087834;54;20039;-83
2022/12/26 17:16:25;;;;;;;3.92;1.75;;;;;;;10.95;80.44;100034.72;1087621;54;20030;-80
2022/12/26 17:17:32;;;;;;;2.80;1.27;;;;;;;11.05;80.23;100036.34;1087233;46;20046;-81
2022/12/26 17:18:48;;;;;;;2.60;1.20;;;;;;;10.89;80.84;100033.47;1087098;54;20065;-81
2022/12/26 17:19:51;;;;;;;3.13;1.30;;;;;;;11.03;80.85;100029.47;1087759;39;20633;-82
2022/12/26 17:20:55;;;;;;;2.80;1.10;;;;;;;11.02;80.83;100036.66;1087140;54;20176;-79
2022/12/26 17:22:29;;;;;;;3.20;1.38;;;;;;;10.97;81.24;100040.75;1087655;54;20038;-79
2022/12/26 17:23:36;;;;;;;3.42;1.27;;;;;;;10.95;81.05;100038.25;1087641;54;20050;-79
2022/12/26 17:24:41;;;;;;;2.80;1.20;;;;;;;10.98;81.23;100040.59;1087600;54;20034;-78
2022/12/26 17:25:44;;;;;;;4.05;1.40;;;;;;;11.02;80.90;100036.66;1090088;39;20694;-80
2022/12/26 17:27:33;;;;;;;3.20;1.20;;;;;;;10.82;81.57;100045.75;1087583;54;20041;-79
2022/12/26 17:28:43;;;;;;;4.35;1.27;;;;;;;10.88;81.88;100043.34;1087213;54;20093;-79
2022/12/26 17:29:56;;;;;;;3.55;1.45;;;;;;;10.83;81.81;100050.13;1087485;54;20057;-80
2022/12/26 17:31:13;;;;;;;3.88;1.45;;;;;;;10.86;81.85;100042.63;1086875;54;20038;-80
2022/12/26 17:32:27;;;;;;;3.47;1.42;;;;;;;10.78;82.19;100045.19;1086248;54;20082;-79
2022/12/26 17:33:34;;;;;;;5.75;1.75;;;;;;;10.83;82.22;100039.41;1087403;54;20034;-80
2022/12/26 17:34:38;;;;;;;3.03;1.25;;;;;;;10.80;82.54;100051.25;1087485;54;20041;-80
2022/12/26 17:35:44;;;;;;;3.22;1.50;;;;;;;10.89;82.46;100045.03;1087597;54;20046;-83
2022/12/26 17:36:46;;;;;;;3.67;1.70;;;;;;;10.82;82.42;100045.75;1087258;54;20047;-82
2022/12/26 17:37:59;;;;;;;3.80;1.30;;;;;;;10.74;83.16;100052.69;1087560;54;20026;-82
2022/12/26 17:39:11;;;;;;;3.88;1.30;;;;;;;10.76;82.97;100050.72;1087291;54;20034;-78
2022/12/26 17:40:28;;;;;;;3.38;1.40;;;;;;;10.68;83.12;100047.88;1089179;39;20745;-79
2022/12/26 17:41:34;;;;;;;3.67;1.38;;;;;;;10.65;83.34;100050.00;1087265;54;20058;-78
2022/12/26 17:42:53;;;;;;;2.85;1.20;;;;;;;10.67;83.38;100040.88;1087015;54;20038;-78
2022/12/26 17:43:57;;;;;;;4.43;1.65;;;;;;;10.69;83.34;100051.44;1086082;54;20106;-78
2022/12/26 17:44:58;;;;;;;3.33;1.30;;;;;;;10.72;82.63;100043.13;1085827;54;20057;-78
2022/12/26 17:46:03;;;;;;;3.17;1.00;;;;;;;10.74;82.68;100052.69;1085632;39;20494;-79
2022/12/26 17:47:21;;;;;;;2.95;1.05;;;;;;;10.73;81.41;100055.47;1085487;54;20065;-78
2022/12/26 17:48:27;;;;;;;2.40;0.90;;;;;;;10.88;81.31;100063.88;1087234;54;20050;-79
2022/12/26 17:49:29;;;;;;;2.80;1.00;;;;;;;10.88;80.53;100055.84;1085434;54;20098;-80
2022/12/26 17:51:49;;;;;;;2.72;0.90;;;;;;;10.80;80.70;100069.13;1085819;54;20031;-80
2022/12/26 17:54:11;;;;;;;2.30;0.93;;;;;;;10.76;81.05;100056.06;1086430;54;20034;-82
2022/12/26 17:58:23;;;;;;;2.60;1.00;;;;;;;10.67;81.68;100066.75;1086290;39;20445;-80
2022/12/26 17:59:29;;;;;;;2.42;0.93;;;;;;;10.60;82.14;100066.50;1085807;54;20107;-82
2022/12/26 18:00:34;;;;;;;2.72;0.95;;;;;;;10.76;81.70;100065.88;1087345;54;20057;-80
2022/12/26 18:01:37;;;;;;;2.42;1.00;;;;;;;10.79;81.57;100067.41;1087550;54;20054;-80
2022/12/26 18:03:58;;;;;;;2.17;0.80;;;;;;;10.63;83.06;100078.75;1086813;54;20035;-80
2022/12/26 18:04:59;;;;;;;2.97;1.00;;;;;;;10.60;83.26;100077.19;1085848;54;20048;-82
2022/12/26 18:06:27;;;;;;;2.45;1.00;;;;;;;10.48;84.48;100083.69;1085959;54;20038;-81
2022/12/26 18:07:29;;;;;;;4.07;1.63;;;;;;;10.58;83.95;100081.84;1086148;39;20291;-81
2022/12/26 18:08:38;;;;;;;2.47;0.90;;;;;;;10.68;83.42;100088.00;1086052;54;20630;-80
2022/12/26 18:09:40;;;;;;;4.85;1.40;;;;;;;10.60;84.09;100087.88;1085233;54;20027;-80
2022/12/26 18:10:44;;;;;;;4.22;1.27;;;;;;;10.52;84.45;100098.44;1085535;54;20057;-80
2022/12/26 18:11:46;;;;;;;2.65;1.20;;;;;;;10.58;84.57;100095.22;1086883;54;20069;-78
2022/12/26 18:12:51;;;;;;;3.03;1.30;;;;;;;10.56;84.44;100102.53;1087179;54;20043;-80
2022/12/26 18:13:53;;;;;;;3.80;1.40;;;;;;;10.45;84.69;100109.72;1086460;54;20057;-81
2022/12/26 18:14:57;;;;;;;3.85;1.35;;;;;;;10.42;84.72;100118.00;1086826;54;20042;-83
2022/12/26 18:22:31;;;;;;;2.97;1.10;;;;;;;10.18;82.89;100117.56;1088397;46;20053;-80
2022/12/26 18:23:35;;;;;;;2.83;1.00;;;;;;;10.13;82.78;100121.50;1086139;54;20049;-80
2022/12/26 18:24:39;;;;;;;3.03;1.27;;;;;;;10.22;82.90;100126.97;1085674;54;20575;-79
2022/12/26 18:25:41;;;;;;;2.85;1.00;;;;;;;10.28;82.53;100127.28;1086637;54;20034;-79
2022/12/26 18:26:46;;;;;;;3.05;0.90;;;;;;;10.32;82.17;100116.31;1087602;54;20046;-80
2022/12/26 18:27:48;;;;;;;2.42;1.00;;;;;;;10.39;81.96;100120.97;1087965;39;20536;-78
2022/12/26 18:28:53;;;;;;;4.18;1.50;;;;;;;10.38;82.06;100124.66;1086646;39;20575;-79
2022/12/26 18:30:09;;;;;;;;;;;;;;;;;;;;;
2022/12/26 18:35:07;;;;;;;4.05;1.50;;;;;;;10.13;81.84;100145.53;1086523;54;20043;-79
2022/12/26 18:36:26;;;;;;;;;;;;;;;;;;;;;
2022/12/26 18:37:33;;;;;;;3.80;1.10;;;;;;;10.08;81.45;100161.16;1087171;54;20397;-78
2022/12/26 18:40:52;;;;;;;3.72;1.33;;;;;;;10.08;80.73;100174.50;1086686;54;20159;-80
2022/12/26 18:41:54;;;;;;;5.00;1.37;;;;;;;10.10;80.93;100172.56;1086251;54;20042;-78
2022/12/26 18:42:58;;;;;;;4.95;1.42;;;;;;;10.24;80.19;100171.31;1085081;54;20256;-79
2022/12/26 18:44:03;;;;;;;3.40;1.10;;;;;;;10.26;79.92;100181.84;1085446;54;20121;-79
2022/12/26 18:45:05;;;;;;;3.42;1.10;;;;;;;10.27;79.66;100184.38;1085679;54;20059;-80
2022/12/26 18:46:16;;;;;;;2.60;1.00;;;;;;;10.21;79.52;100190.28;1085259;54;20046;-79
2022/12/26 18:47:19;;;;;;;4.07;1.10;;;;;;;10.11;79.79;100190.25;1084992;54;20059;-78
2022/12/26 18:48:23;;;;;;;4.45;1.13;;;;;;;10.04;79.63;100199.81;1085593;54;20030;-77
2022/12/26 18:49:25;;;;;;;3.58;1.27;;;;;;;10.12;79.63;100194.59;1087177;54;20046;-80
2022/12/26 18:50:31;;;;;;;2.70;1.20;;;;;;;10.24;79.15;100194.50;1087030;54;20102;-81
2022/12/26 18:51:35;;;;;;;3.30;1.10;;;;;;;10.25;79.14;100191.66;1087205;54;20042;-78
2022/12/26 18:52:39;;;;;;;2.40;0.82;;;;;;;10.27;78.97;100188.88;1087267;54;20034;-78
2022/12/26 18:53:41;;;;;;;3.05;1.10;;;;;;;10.34;78.76;100189.16;1087291;54;20050;-83
2022/12/26 18:54:45;;;;;;;4.85;1.20;;;;;;;10.26;78.60;100187.19;1087291;54;20063;-78
2022/12/26 18:55:49;;;;;;;2.65;0.98;;;;;;;10.14;78.23;100181.13;1087062;54;20120;-78
2022/12/26 18:56:53;;;;;;;3.60;1.00;;;;;;;10.11;78.54;100189.41;1087109;54;20046;-78
2022/12/26 18:57:55;;;;;;;4.00;0.98;;;;;;;10.02;78.83;100188.41;1087114;54;21195;-78
2022/12/26 18:59:00;;;;;;;3.30;1.52;;;;;;;9.96;79.11;100186.28;1087080;54;20030;-78
2022/12/26 19:00:02;;;;;;;3.08;1.05;;;;;;;9.89;78.82;100187.81;1087114;54;20065;-77
2022/12/26 19:01:08;;;;;;;2.53;0.70;;;;;;;9.98;78.50;100200.34;1087009;54;20038;-79
2022/12/26 19:02:15;;;;;;;2.13;0.80;;;;;;;10.14;78.40;100194.50;1088944;46;20041;-77
2022/12/26 19:03:19;;;;;;;2.80;0.88;;;;;;;10.23;77.81;100198.13;1086991;54;20840;-77
2022/12/26 19:04:21;;;;;;;3.03;0.90;;;;;;;10.10;77.63;100193.94;1087113;54;20038;-78
2022/12/26 19:05:29;;;;;;;2.88;0.80;;;;;;;10.10;77.84;100193.06;1087061;54;20046;-78
2022/12/26 19:06:34;;;;;;;2.53;0.80;;;;;;;10.18;77.67;100192.38;1087154;54;20108;-77
2022/12/26 19:07:38;;;;;;;3.03;0.95;;;;;;;10.04;77.81;100196.28;1086974;54;20030;-78
2022/12/26 19:08:40;;;;;;;2.85;1.08;;;;;;;10.20;77.38;100193.94;1087075;54;20046;-77
2022/12/26 19:09:45;;;;;;;2.28;0.80;;;;;;;10.01;78.10;100205.44;1089438;46;20095;-78
2022/12/26 19:10:52;;;;;;;2.75;1.02;;;;;;;10.16;77.65;100203.19;1087368;54;20099;-78
2022/12/26 19:11:54;;;;;;;2.58;0.90;;;;;;;10.03;77.82;100203.44;1087524;54;20035;-79
2022/12/26 19:13:03;;;;;;;3.00;0.85;;;;;;;10.12;78.08;100201.78;1087500;54;20042;-79
2022/12/26 19:14:06;;;;;;;3.95;1.48;;;;;;;10.23;77.48;100204.34;1087235;54;20981;-80
2022/12/26 19:15:12;;;;;;;1.95;0.73;;;;;;;10.25;77.51;100196.19;1087409;54;20031;-79
2022/12/26 19:16:17;;;;;;;2.92;1.00;;;;;;;10.06;77.60;100197.00;1087332;54;20039;-80
2022/12/26 19:17:18;;;;;;;3.30;1.30;;;;;;;9.92;78.45;100191.06;1087466;54;20019;-79
2022/12/26 19:18:23;;;;;;;2.60;1.10;;;;;;;9.88;78.41;100194.97;1087441;54;20041;-79
2022/12/26 19:19:28;;;;;;;2.72;1.02;;;;;;;9.79;78.70;100199.31;1087449;54;20057;-79
2022/12/26 19:20:32;;;;;;;3.95;0.95;;;;;;;9.87;78.62;100208.47;1087420;54;20030;-79
2022/12/26 19:21:34;;;;;;;4.15;1.08;;;;;;;9.96;78.50;100211.19;1087381;54;20062;-77
2022/12/26 19:22:38;;;;;;;2.95;1.00;;;;;;;10.09;77.81;100218.94;1087528;54;20170;-78
2022/12/26 19:23:41;;;;;;;2.75;0.88;;;;;;;10.17;77.85;100228.09;1087372;54;20031;-78
2022/12/26 19:24:46;;;;;;;3.05;0.93;;;;;;;10.04;77.64;100228.34;1092584;39;20642;-79
2022/12/26 19:25:53;;;;;;;3.25;1.20;;;;;;;10.06;77.65;100232.56;1087588;47;20793;-81
2022/12/26 19:26:54;;;;;;;2.83;1.10;;;;;;;9.80;78.52;100243.75;1087506;54;20038;-79
2022/12/26 19:27:59;;;;;;;5.75;1.27;;;;;;;9.85;78.50;100246.00;1087499;54;20046;-79
2022/12/26 19:29:00;;;;;;;3.67;1.20;;;;;;;9.86;78.80;100244.16;1087504;54;20034;-77
2022/12/26 19:30:05;;;;;;;5.13;1.38;;;;;;;9.94;78.26;100247.00;1087300;54;20030;-79
2022/12/26 19:31:08;;;;;;;2.97;1.10;;;;;;;10.04;77.94;100237.19;1087006;54;20039;-79
2022/12/26 19:32:12;;;;;;;5.28;1.50;;;;;;;9.78;78.97;100250.16;1087154;54;20061;-79
2022/12/26 19:33:14;;;;;;;4.38;1.27;;;;;;;9.69;78.93;100254.50;1087339;54;20057;-78
2022/12/26 19:34:18;;;;;;;4.05;1.10;;;;;;;9.75;78.90;100248.63;1087006;54;20041;-78
2022/12/26 19:35:20;;;;;;;3.42;1.10;;;;;;;9.92;78.47;100249.00;1087030;46;20038;-79
2022/12/26 19:36:24;;;;;;;4.15;1.60;;;;;;;10.02;78.29;100249.00;1087217;54;20034;-78
2022/12/26 19:37:27;;;;;;;3.83;1.27;;;;;;;9.99;78.37;100242.13;1087149;54;20047;-81
2022/12/26 19:38:32;;;;;;;3.90;1.40;;;;;;;9.98;78.35;100269.78;1087307;54;20048;-79
2022/12/26 19:39:40;;;;;;;3.60;1.08;;;;;;;10.08;77.82;100262.66;1087102;54;20066;-79
2022/12/26 19:40:53;;;;;;;3.28;1.17;;;;;;;9.94;77.87;100266.56;1086717;54;20062;-83
2022/12/26 19:42:03;;;;;;;4.68;1.40;;;;;;;9.77;78.35;100262.69;1087028;54;20034;-77
2022/12/26 19:43:05;;;;;;;4.43;1.65;;;;;;;9.70;78.40;100264.22;1087593;54;20036;-85
2022/12/26 19:44:11;;;;;;;2.70;0.90;;;;;;;9.71;78.39;100263.22;1087658;54;20026;-85
2022/12/26 19:45:13;;;;;;;3.97;1.08;;;;;;;9.64;78.49;100256.72;1087644;54;20037;-87
2022/12/26 19:46:17;;;;;;;4.85;1.05;;;;;;;9.62;78.34;100262.19;1087561;54;20057;-84
2022/12/26 19:47:19;;;;;;;4.38;0.98;;;;;;;9.67;78.19;100251.13;1087480;54;20040;-87
2022/12/26 19:48:23;;;;;;;3.25;1.05;;;;;;;9.51;78.75;100263.16;1087733;54;20090;-83
2022/12/26 19:49:25;;;;;;;3.95;0.90;;;;;;;9.53;78.56;100265.66;1087522;54;20041;-81
2022/12/26 19:50:29;;;;;;;3.78;1.02;;;;;;;9.63;78.48;100271.06;1087598;54;20057;-84
2022/12/26 19:51:31;;;;;;;2.88;0.90;;;;;;;9.68;78.47;100279.50;1087633;54;20040;-84
2022/12/26 19:52:37;;;;;;;3.35;1.30;;;;;;;9.64;78.24;100286.06;1088778;39;20873;-86
2022/12/26 19:53:42;;;;;;;4.80;1.45;;;;;;;9.56;78.67;100286.75;1087613;54;20031;-81
2022/12/26 19:54:44;;;;;;;3.08;1.00;;;;;;;9.75;78.12;100294.00;1087450;54;20109;-81
2022/12/26 19:55:48;;;;;;;3.20;1.10;;;;;;;9.56;78.33;100291.25;1087389;54;20050;-80
2022/12/26 19:56:50;;;;;;;3.55;1.00;;;;;;;9.56;78.57;100308.13;1087346;54;20038;-80
2022/12/26 19:57:57;;;;;;;2.90;0.90;;;;;;;9.73;77.64;100297.78;1087517;54;20038;-80
2022/12/26 19:58:59;;;;;;;3.85;1.20;;;;;;;9.57;78.33;100306.28;1087338;54;20800;-80
2022/12/26 20:00:03;;;;;;;3.10;0.85;;;;;;;9.71;77.89;100300.63;1087421;54;20053;-80
2022/12/26 20:01:06;;;;;;;3.45;1.10;;;;;;;9.64;78.19;100302.97;1087351;54;20030;-79
2022/12/26 20:02:13;;;;;;;8.27;1.23;;;;;;;9.43;77.96;100303.00;1086958;54;20045;-81
2022/12/26 20:03:18;;;;;;;3.00;1.10;;;;;;;9.35;78.32;100298.28;1087118;54;20042;-81
2022/12/26 20:04:20;;;;;;;3.60;1.00;;;;;;;9.36;78.91;100312.47;1087451;54;20065;-80
2022/12/26 20:05:24;;;;;;;3.20;1.10;;;;;;;9.33;78.92;100302.91;1087354;54;20030;-80
2022/12/26 20:06:28;;;;;;;4.72;1.50;;;;;;;9.33;78.93;100307.41;1087433;54;20037;-80
2022/12/26 20:07:32;;;;;;;5.75;1.50;;;;;;;9.39;78.63;100308.72;1087413;54;20037;-80
2022/12/26 20:08:34;;;;;;;3.67;0.90;;;;;;;9.42;78.73;100311.97;1087284;54;20061;-81
2022/12/26 20:09:39;;;;;;;3.17;1.08;;;;;;;9.44;77.87;100315.34;1087399;54;20138;-80
2022/12/26 20:10:41;;;;;;;3.22;1.05;;;;;;;9.46;78.18;100315.22;1087320;54;20034;-80
2022/12/26 20:11:48;;;;;;;3.25;1.17;;;;;;;9.43;78.38;100319.00;1087381;54;20037;-79
2022/12/26 20:12:52;;;;;;;3.08;1.10;;;;;;;9.47;77.92;100323.06;1087328;54;20065;-79
2022/12/26 20:13:56;;;;;;;3.10;1.20;;;;;;;9.39;77.74;100322.88;1087380;47;20019;-80
2022/12/26 20:15:01;;;;;;;3.47;1.00;;;;;;;9.40;77.73;100313.91;1087198;54;20030;-79